createdAt,value
2022-09-02T00:03:50.056Z,26.86
2022-09-02T00:10:17.435Z,26.89
2022-09-02T00:16:44.415Z,26.91
2022-09-02T00:23:14.750Z,26.88
2022-09-02T00:29:46.843Z,26.93
2022-09-02T00:36:11.521Z,26.96
2022-09-02T00:42:47.397Z,26.92
2022-09-02T00:49:38.007Z,26.89
2022-09-02T00:56:31.411Z,26.92
2022-09-02T01:03:17.413Z,26.93
2022-09-02T01:09:52.519Z,27.04
2022-09-02T01:16:26.375Z,26.99
2022-09-02T01:23:08.631Z,26.96
2022-09-02T01:29:40.855Z,26.91
2022-09-02T01:36:14.898Z,27.06
2022-09-02T01:42:46.387Z,27.12
2022-09-02T01:49:27.592Z,27.01
2022-09-02T01:55:57.328Z,26.91
2022-09-02T02:02:25.142Z,26.85
2022-09-02T02:09:03.521Z,26.81
2022-09-02T02:15:43.505Z,26.87
2022-09-02T02:22:19.700Z,26.89
2022-09-02T02:28:44.499Z,26.93
2022-09-02T02:35:16.934Z,26.85
2022-09-02T02:41:47.576Z,26.82
2022-09-02T02:48:31.545Z,26.86
2022-09-02T02:55:15.554Z,26.81
2022-09-02T03:01:53.820Z,26.78
2022-09-02T03:08:33.556Z,26.81
2022-09-02T03:14:57.556Z,26.8
2022-09-02T03:21:36.198Z,26.81
2022-09-02T03:28:07.567Z,26.8
2022-09-02T03:34:42.519Z,26.77
2022-09-02T03:41:07.559Z,26.77
2022-09-02T03:47:41.926Z,26.74
2022-09-02T03:54:20.772Z,26.73
2022-09-02T04:00:56.417Z,26.71
2022-09-02T04:07:24.937Z,26.7
2022-09-02T04:13:54.582Z,26.72
2022-09-02T04:20:26.182Z,26.71
2022-09-02T04:27:03.987Z,26.69
2022-09-02T04:33:40.772Z,26.69
2022-09-02T04:40:08.692Z,26.65
2022-09-02T04:46:42.734Z,26.65
2022-09-02T04:53:26.573Z,26.64
2022-09-02T04:59:52.639Z,26.65
2022-09-02T05:06:34.282Z,26.68
2022-09-02T05:13:15.845Z,26.66
2022-09-02T05:19:51.660Z,26.66
2022-09-02T05:26:18.551Z,26.63
2022-09-02T05:32:45.628Z,26.62
2022-09-02T05:39:15.823Z,26.58
2022-09-02T05:45:49.660Z,26.65
2022-09-02T05:52:19.633Z,26.64
2022-09-02T05:58:58.712Z,26.72
2022-09-02T06:05:38.578Z,26.6
2022-09-02T06:12:06.611Z,26.6
2022-09-02T06:18:31.844Z,26.6
2022-09-02T06:25:00.697Z,26.58
2022-09-02T06:31:34.371Z,26.6
2022-09-02T06:38:11.665Z,26.63
2022-09-02T06:44:46.620Z,26.64
2022-09-02T06:51:26.594Z,26.62
2022-09-02T06:57:56.113Z,26.61
2022-09-02T07:04:34.588Z,26.62
2022-09-02T07:11:18.214Z,26.65
2022-09-02T07:17:52.690Z,26.62
2022-09-02T07:24:29.672Z,26.68
2022-09-02T07:30:55.336Z,26.61
2022-09-02T07:37:26.811Z,26.67
2022-09-02T07:43:59.632Z,26.68
2022-09-02T07:50:30.081Z,26.65
2022-09-02T07:56:56.412Z,26.68
2022-09-02T08:03:23.506Z,26.68
2022-09-02T08:09:46.408Z,26.68
2022-09-02T08:16:17.194Z,26.68
2022-09-02T08:22:41.363Z,26.68
2022-09-02T08:29:10.083Z,26.68
2022-09-02T08:35:36.009Z,26.68
2022-09-02T08:42:10.665Z,26.68
2022-09-02T08:49:04.861Z,26.68
2022-09-02T08:56:10.125Z,26.68
2022-09-02T09:02:55.156Z,26.68
2022-09-02T09:10:00.560Z,26.68
2022-09-02T09:17:01.870Z,26.68
2022-09-02T09:23:59.407Z,26.68
2022-09-02T09:30:38.779Z,26.68
2022-09-02T09:37:29.221Z,26.68
2022-09-02T09:44:26.219Z,26.68
2022-09-02T09:51:19.570Z,26.68
2022-09-02T09:57:57.253Z,26.68
2022-09-02T10:04:53.921Z,26.68
2022-09-02T10:11:56.715Z,26.68
2022-09-02T10:18:53.209Z,26.68
2022-09-02T10:25:49.187Z,26.68
2022-09-02T10:32:48.168Z,26.68
2022-09-02T10:39:52.327Z,26.68
2022-09-02T10:46:53.968Z,26.68
2022-09-02T10:53:45.533Z,26.68
2022-09-02T11:00:59.053Z,26.68
2022-09-02T11:07:56.381Z,26.68
2022-09-02T11:14:52.958Z,26.68
2022-09-02T11:21:45.148Z,26.68
2022-09-02T11:29:01.745Z,26.68
2022-09-02T11:36:02.028Z,26.68
2022-09-02T11:42:56.934Z,26.68
2022-09-02T11:49:51.667Z,26.68
2022-09-02T11:56:48.594Z,26.68
2022-09-02T12:04:16.073Z,26.68
2022-09-02T12:10:56.214Z,26.68
2022-09-02T12:17:32.197Z,26.68
2022-09-02T12:24:24.774Z,26.68
2022-09-02T12:31:07.573Z,26.68
2022-09-02T12:37:53.874Z,26.68
2022-09-02T12:44:51.170Z,26.68
2022-09-02T12:51:59.654Z,26.68
2022-09-02T12:59:00.328Z,26.68
2022-09-02T13:05:57.693Z,26.68
2022-09-02T13:12:57.929Z,26.68
2022-09-02T13:19:52.654Z,26.68
2022-09-02T13:26:50.432Z,26.68
2022-09-02T13:33:53.982Z,26.68
2022-09-02T13:40:34.485Z,26.68
2022-09-02T13:47:08.562Z,26.68
2022-09-02T13:53:45.324Z,26.68
2022-09-02T14:00:36.027Z,26.68
2022-09-02T14:07:13.470Z,26.68
2022-09-02T14:13:54.087Z,26.68
2022-09-02T14:20:36.514Z,26.68
2022-09-02T14:27:16.279Z,26.68
2022-09-02T14:33:59.036Z,26.68
2022-09-02T14:40:43.205Z,26.68
2022-09-02T14:47:32.918Z,26.68
2022-09-02T14:54:21.073Z,26.68
2022-09-02T15:01:09.586Z,26.68
2022-09-02T15:07:39.673Z,26.68
2022-09-02T15:14:14.685Z,26.68
2022-09-02T15:20:34.458Z,26.68
2022-09-02T15:26:58.694Z,26.68
2022-09-02T15:33:25.255Z,26.68
2022-09-02T15:39:52.570Z,26.68
2022-09-02T15:46:34.437Z,26.68
2022-09-02T15:53:06.412Z,26.68
2022-09-02T15:59:32.160Z,26.68
2022-09-02T16:05:53.430Z,26.68
2022-09-02T16:12:25.114Z,26.68
2022-09-02T16:18:50.408Z,26.68
2022-09-02T16:25:15.035Z,26.68
2022-09-02T16:31:44.800Z,26.68
2022-09-02T16:38:27.314Z,26.68
2022-09-02T16:44:52.148Z,26.68
2022-09-02T16:51:13.044Z,26.68
2022-09-02T16:57:37.695Z,26.68
2022-09-02T17:03:56.875Z,26.68
2022-09-02T17:10:21.154Z,26.68
2022-09-02T17:16:47.831Z,26.68
2022-09-02T17:23:28.513Z,26.68
2022-09-02T17:29:55.476Z,26.68
2022-09-02T17:36:27.177Z,26.68
2022-09-02T17:42:57.953Z,26.68
2022-09-02T17:49:22.885Z,26.68
2022-09-02T17:55:44.923Z,26.68
2022-09-02T18:02:42.272Z,26.68
2022-09-02T18:09:39.169Z,26.68
2022-09-02T18:16:22.208Z,26.68
2022-09-02T18:23:24.700Z,26.68
2022-09-02T18:30:29.692Z,26.68
2022-09-02T18:37:27.619Z,26.68
2022-09-02T18:44:21.987Z,26.68
2022-09-02T18:51:13.513Z,26.68
2022-09-02T18:58:12.631Z,26.68
2022-09-02T19:04:52.089Z,26.68
2022-09-02T19:11:35.446Z,26.68
2022-09-02T19:18:17.269Z,26.68
2022-09-02T19:24:56.643Z,26.68
2022-09-02T19:31:41.539Z,26.68
2022-09-02T19:38:25.599Z,26.68
2022-09-02T19:44:52.337Z,26.68
2022-09-02T19:51:15.225Z,26.68
2022-09-02T19:57:42.919Z,26.68
2022-09-02T20:04:02.732Z,26.68
2022-09-02T20:10:28.322Z,26.68
2022-09-02T20:16:57.911Z,26.68
2022-09-02T20:23:32.334Z,26.68
2022-09-02T20:30:35.333Z,26.68
2022-09-02T20:37:40.202Z,26.68
2022-09-02T20:44:56.944Z,26.68
2022-09-02T20:52:04.542Z,26.68
2022-09-02T20:59:13.186Z,26.68
2022-09-02T21:06:08.011Z,26.68
2022-09-02T21:13:11.215Z,26.68
2022-09-02T21:20:11.341Z,26.68
2022-09-02T21:27:04.561Z,26.68
2022-09-02T21:34:20.077Z,26.68
2022-09-02T21:41:18.165Z,26.68
2022-09-02T21:48:29.584Z,26.68
2022-09-02T21:55:36.672Z,26.68
2022-09-02T22:02:32.789Z,26.68
2022-09-02T22:09:26.796Z,26.68
2022-09-02T22:16:19.877Z,26.68
2022-09-02T22:23:07.765Z,26.68
2022-09-02T22:29:47.620Z,26.68
2022-09-02T22:36:47.242Z,26.68
2022-09-02T22:43:43.315Z,26.68
2022-09-02T22:50:38.696Z,26.68
2022-09-02T22:57:21.054Z,26.68
2022-09-02T23:04:20.101Z,26.68
2022-09-02T23:11:02.421Z,26.68
2022-09-02T23:17:58.847Z,26.68
2022-09-02T23:25:05.484Z,26.68
2022-09-02T23:32:04.152Z,26.68
2022-09-02T23:39:05.747Z,26.68
2022-09-02T23:45:49.270Z,26.68
2022-09-02T23:52:49.356Z,26.68
